createdAt,value
2022-09-02T00:04:40.177Z,2.28
2022-09-02T00:09:40.545Z,1.67
2022-09-02T00:12:11.163Z,2.33
2022-09-02T00:14:40.609Z,2.05
2022-09-02T00:17:09.649Z,2.70
2022-09-02T00:19:39.302Z,3.13
2022-09-02T00:22:08.618Z,4.28
2022-09-02T00:24:37.609Z,5.38
2022-09-02T00:27:06.890Z,6.28
2022-09-02T00:29:38.571Z,4.80
2022-09-02T00:32:07.863Z,4.35
2022-09-02T00:37:06.104Z,3.35
2022-09-02T00:39:35.277Z,2.72
2022-09-02T00:42:06.907Z,2.08
2022-09-02T00:44:37.331Z,1.70
2022-09-02T00:47:06.749Z,2.17
2022-09-02T00:49:39.389Z,2.67
2022-09-02T00:52:15.893Z,2.17
2022-09-02T00:54:50.953Z,1.48
2022-09-02T00:57:23.634Z,1.80
2022-09-02T01:00:00.122Z,2.13
2022-09-02T01:02:31.909Z,1.92
2022-09-02T01:05:03.997Z,2.72
2022-09-02T01:07:36.894Z,2.25
2022-09-02T01:10:08.738Z,3.30
2022-09-02T01:12:38.886Z,4.05
2022-09-02T01:15:12.026Z,4.13
2022-09-02T01:17:47.373Z,4.25
2022-09-02T01:20:24.520Z,3.95
2022-09-02T01:22:57.265Z,3.92
2022-09-02T01:25:30.761Z,3.47
2022-09-02T01:28:02.270Z,3.42
2022-09-02T01:30:32.877Z,3.30
2022-09-02T01:33:02.233Z,3.17
2022-09-02T01:38:02.695Z,2.75
2022-09-02T01:40:34.103Z,3.92
2022-09-02T01:43:07.649Z,2.67
2022-09-02T01:45:37.127Z,3.17
2022-09-02T01:50:37.010Z,3.20
2022-09-02T01:53:08.076Z,3.28
2022-09-02T01:55:38.344Z,2.80
2022-09-02T01:58:07.695Z,2.95
2022-09-02T02:00:36.822Z,3.20
2022-09-02T02:03:06.568Z,2.53
2022-09-02T02:05:36.600Z,2.75
2022-09-02T02:08:08.010Z,2.78
2022-09-02T02:10:37.980Z,3.08
2022-09-02T02:13:07.522Z,2.85
2022-09-02T02:18:08.079Z,3.20
2022-09-02T02:20:37.625Z,3.45
2022-09-02T02:25:38.377Z,3.10
2022-09-02T02:33:08.444Z,2.30
2022-09-02T02:35:37.643Z,3.47
2022-09-02T02:38:08.600Z,3.28
2022-09-02T02:40:38.400Z,2.95
2022-09-02T02:43:07.648Z,3.40
2022-09-02T02:45:36.688Z,3.05
2022-09-02T02:48:06.253Z,2.92
2022-09-02T02:53:04.767Z,3.22
2022-09-02T02:55:36.068Z,3.30
2022-09-02T02:58:05.286Z,2.83
2022-09-02T03:00:36.253Z,2.65
2022-09-02T03:03:08.720Z,2.63
2022-09-02T03:05:39.272Z,2.95
2022-09-02T03:08:11.177Z,2.50
2022-09-02T03:11:18.187Z,2.17
2022-09-02T03:13:49.035Z,1.77
2022-09-02T03:16:20.312Z,1.95
2022-09-02T03:18:51.435Z,1.60
2022-09-02T03:21:21.575Z,1.92
2022-09-02T03:23:51.919Z,1.80
2022-09-02T03:26:24.299Z,1.98
2022-09-02T03:28:57.117Z,2.45
2022-09-02T03:31:28.479Z,2.03
2022-09-02T03:33:58.586Z,1.83
2022-09-02T03:36:32.421Z,1.80
2022-09-02T03:39:02.625Z,1.67
2022-09-02T03:41:32.236Z,1.70
2022-09-02T03:44:03.662Z,1.35
2022-09-02T03:46:32.877Z,1.52
2022-09-02T03:49:02.556Z,1.85
2022-09-02T03:51:31.769Z,1.38
2022-09-02T03:54:02.752Z,1.52
2022-09-02T03:56:32.254Z,2.17
2022-09-02T03:59:03.304Z,1.80
2022-09-02T04:01:34.452Z,1.65
2022-09-02T04:04:06.450Z,1.27
2022-09-02T04:06:37.907Z,1.33
2022-09-02T04:09:08.024Z,2.15
2022-09-02T04:11:42.795Z,1.58
2022-09-02T04:14:15.786Z,1.80
2022-09-02T04:16:44.888Z,2.70
2022-09-02T04:19:14.116Z,2.80
2022-09-02T04:24:14.484Z,2.05
2022-09-02T04:26:48.180Z,2.03
2022-09-02T04:29:20.817Z,2.95
2022-09-02T04:31:53.220Z,2.45
2022-09-02T04:34:23.810Z,2.78
2022-09-02T04:36:54.135Z,2.67
2022-09-02T04:41:54.862Z,2.15
2022-09-02T04:44:27.561Z,2.13
2022-09-02T04:46:57.057Z,2.15
2022-09-02T04:49:27.377Z,1.70
2022-09-02T04:51:56.523Z,1.50
2022-09-02T04:54:28.404Z,1.70
2022-09-02T04:57:01.126Z,1.77
2022-09-02T04:59:32.706Z,1.58
2022-09-02T05:02:08.811Z,1.90
2022-09-02T05:04:38.474Z,1.52
2022-09-02T05:07:12.794Z,2.05
2022-09-02T05:09:46.704Z,1.95
2022-09-02T05:12:19.899Z,1.80
2022-09-02T05:15:01.077Z,1.75
2022-09-02T05:17:33.137Z,1.90
2022-09-02T05:20:04.970Z,1.92
2022-09-02T05:22:34.981Z,2.33
2022-09-02T05:25:09.640Z,1.67
2022-09-02T05:27:39.474Z,1.85
2022-09-02T05:30:13.182Z,1.90
2022-09-02T05:32:42.697Z,2.17
2022-09-02T05:37:41.211Z,1.35
2022-09-02T05:40:14.775Z,2.00
2022-09-02T05:42:48.672Z,1.25
2022-09-02T05:45:20.321Z,1.40
2022-09-02T05:47:50.312Z,1.27
2022-09-02T05:52:52.983Z,1.27
2022-09-02T05:55:24.058Z,1.42
2022-09-02T05:57:53.227Z,1.73
2022-09-02T06:00:25.945Z,1.40
2022-09-02T06:03:01.664Z,1.98
2022-09-02T06:05:38.416Z,1.58
2022-09-02T06:08:26.519Z,1.67
2022-09-02T06:10:56.227Z,1.35
2022-09-02T06:13:28.279Z,1.20
2022-09-02T06:16:13.485Z,1.40
2022-09-02T06:18:45.527Z,1.52
2022-09-02T06:21:15.602Z,1.38
2022-09-02T06:23:49.270Z,1.40
2022-09-02T06:28:48.815Z,1.60
2022-09-02T06:31:21.890Z,1.05
2022-09-02T06:33:55.237Z,1.67
2022-09-02T06:36:28.131Z,1.60
2022-09-02T06:38:59.715Z,1.67
2022-09-02T06:41:31.971Z,1.30
2022-09-02T06:44:07.042Z,1.20
2022-09-02T06:46:44.462Z,1.30
2022-09-02T06:49:17.003Z,1.23
2022-09-02T06:51:52.077Z,1.45
2022-09-02T06:54:22.880Z,1.25
2022-09-02T06:56:56.635Z,1.50
2022-09-02T06:59:27.714Z,1.13
2022-09-02T07:02:01.512Z,1.40
2022-09-02T07:04:47.981Z,1.00
2022-09-02T07:07:21.666Z,1.10
2022-09-02T07:09:56.790Z,1.42
2022-09-02T07:12:27.345Z,1.65
2022-09-02T07:15:01.911Z,1.58
2022-09-02T07:17:41.514Z,1.30
2022-09-02T07:20:14.779Z,1.88
2022-09-02T07:25:24.874Z,0.90
2022-09-02T07:27:54.719Z,1.88
2022-09-02T07:30:25.703Z,1.65
2022-09-02T07:33:03.096Z,2.10
2022-09-02T07:35:33.574Z,1.63
2022-09-02T07:38:04.358Z,1.30
2022-09-02T07:40:36.427Z,1.33
2022-09-02T07:43:07.037Z,1.60
2022-09-02T07:45:38.917Z,1.27
2022-09-02T07:48:09.959Z,0.88
2022-09-02T07:50:40.891Z,0.95
2022-09-02T07:53:14.169Z,0.90
2022-09-02T07:55:46.031Z,1.10
2022-09-02T07:58:17.027Z,1.10
2022-09-02T08:00:46.324Z,1.10
2022-09-02T08:03:19.398Z,1.02
2022-09-02T08:05:54.330Z,1.02
2022-09-02T08:08:23.481Z,1.35
2022-09-02T08:10:53.241Z,1.45
2022-09-02T08:13:26.992Z,1.20
2022-09-02T08:15:57.003Z,1.10
2022-09-02T08:20:56.361Z,0.85
2022-09-02T08:26:07.631Z,1.02
2022-09-02T08:28:37.053Z,1.10
2022-09-02T08:31:07.703Z,1.10
2022-09-02T08:33:38.736Z,0.73
2022-09-02T08:36:11.869Z,0.77
2022-09-02T08:38:41.604Z,1.17
2022-09-02T08:41:18.337Z,0.77
2022-09-02T08:43:50.184Z,0.98
2022-09-02T08:46:25.919Z,0.98
2022-09-02T08:48:59.706Z,0.90
2022-09-02T08:51:37.032Z,1.02
2022-09-02T08:54:10.617Z,1.10
2022-09-02T08:56:41.817Z,0.93
2022-09-02T08:59:13.096Z,1.80
2022-09-02T09:01:49.861Z,0.90
2022-09-02T09:04:28.200Z,0.88
2022-09-02T09:07:09.884Z,1.17
2022-09-02T09:09:51.185Z,1.05
2022-09-02T09:12:30.664Z,0.88
2022-09-02T09:15:10.177Z,0.93
2022-09-02T09:17:45.434Z,1.25
2022-09-02T09:20:20.601Z,1.08
2022-09-02T09:22:52.192Z,0.73
2022-09-02T09:25:21.887Z,1.17
2022-09-02T09:27:50.818Z,1.00
2022-09-02T09:30:19.840Z,0.90
2022-09-02T09:32:54.801Z,0.73
2022-09-02T09:35:26.596Z,0.70
2022-09-02T09:37:56.805Z,1.17
2022-09-02T09:40:30.587Z,0.90
2022-09-02T09:43:14.561Z,1.00
2022-09-02T09:45:47.257Z,1.50
2022-09-02T09:48:24.050Z,0.77
2022-09-02T09:51:13.282Z,0.85
2022-09-02T09:53:42.614Z,0.98
2022-09-02T09:59:30.279Z,1.05
2022-09-02T10:01:59.682Z,1.05
2022-09-02T10:04:42.746Z,1.20
2022-09-02T10:07:14.806Z,1.17
2022-09-02T10:09:44.129Z,1.20
2022-09-02T10:12:14.271Z,1.10
2022-09-02T10:14:46.701Z,0.70
2022-09-02T10:17:34.546Z,0.70
2022-09-02T10:23:01.033Z,0.70
2022-09-02T10:25:41.215Z,0.77
2022-09-02T10:28:24.393Z,0.90
2022-09-02T10:31:05.221Z,0.85
2022-09-02T10:33:46.124Z,0.60
2022-09-02T10:36:25.296Z,0.60
2022-09-02T10:39:04.551Z,0.68
2022-09-02T10:41:47.291Z,0.63
2022-09-02T10:44:33.911Z,0.73
2022-09-02T10:47:04.974Z,0.70
2022-09-02T10:50:01.591Z,0.90
2022-09-02T10:52:56.138Z,0.70
2022-09-02T10:55:41.802Z,0.80
2022-09-02T10:58:14.990Z,0.63
2022-09-02T11:00:51.878Z,0.90
2022-09-02T11:03:26.882Z,0.80
2022-09-02T11:05:59.675Z,0.70
2022-09-02T11:08:38.246Z,1.00
2022-09-02T11:13:53.840Z,0.80
2022-09-02T11:16:27.854Z,0.68
2022-09-02T11:19:03.893Z,0.80
2022-09-02T11:21:44.066Z,0.90
2022-09-02T11:24:16.276Z,0.75
2022-09-02T11:26:55.244Z,0.88
2022-09-02T11:29:34.253Z,0.68
2022-09-02T11:32:12.522Z,0.63
2022-09-02T11:34:47.160Z,1.00
2022-09-02T11:37:29.962Z,0.80
2022-09-02T11:40:23.517Z,0.80
2022-09-02T11:43:09.010Z,1.15
2022-09-02T11:46:04.067Z,0.57
2022-09-02T11:48:52.671Z,0.80
2022-09-02T11:51:54.897Z,1.15
2022-09-02T11:54:27.540Z,0.88
2022-09-02T11:57:01.874Z,1.33
2022-09-02T12:00:15.699Z,0.82
2022-09-02T12:02:51.753Z,1.35
2022-09-02T12:05:49.357Z,1.30
2022-09-02T12:08:53.920Z,0.90
2022-09-02T12:11:45.528Z,1.08
2022-09-02T12:14:47.807Z,0.82
2022-09-02T12:18:07.138Z,0.75
2022-09-02T12:21:15.931Z,0.70
2022-09-02T12:24:22.139Z,0.90
2022-09-02T12:27:28.586Z,0.73
2022-09-02T12:29:59.956Z,0.95
2022-09-02T12:33:30.310Z,0.80
2022-09-02T12:35:59.869Z,1.08
2022-09-02T12:38:34.118Z,0.80
2022-09-02T12:41:22.130Z,0.73
2022-09-02T12:43:58.953Z,1.00
2022-09-02T12:46:36.540Z,1.13
2022-09-02T12:49:17.715Z,1.10
2022-09-02T12:51:59.925Z,1.02
2022-09-02T12:54:42.200Z,1.38
2022-09-02T12:57:12.544Z,1.00
2022-09-02T12:59:42.503Z,1.92
2022-09-02T13:02:35.550Z,1.15
2022-09-02T13:05:18.570Z,1.08
2022-09-02T13:08:34.097Z,1.38
2022-09-02T13:11:44.788Z,1.00
2022-09-02T13:14:49.510Z,0.70
2022-09-02T13:17:37.158Z,1.10
2022-09-02T13:20:45.116Z,0.80
2022-09-02T13:23:51.495Z,0.80
2022-09-02T13:26:55.950Z,0.70
2022-09-02T13:30:03.089Z,1.25
2022-09-02T13:32:39.501Z,0.90
2022-09-02T13:35:20.262Z,0.80
2022-09-02T13:38:00.502Z,0.50
2022-09-02T13:40:34.951Z,0.90
2022-09-02T13:43:05.653Z,0.60
2022-09-02T13:45:36.913Z,0.60
2022-09-02T13:48:11.629Z,0.50
2022-09-02T13:50:46.136Z,0.40
2022-09-02T13:53:45.693Z,0.50
2022-09-02T13:56:27.968Z,0.57
2022-09-02T13:58:57.790Z,0.47
2022-09-02T14:01:30.181Z,0.52
2022-09-02T14:04:01.386Z,0.45
2022-09-02T14:06:36.309Z,0.50
2022-09-02T14:09:10.446Z,0.38
2022-09-02T14:11:43.059Z,0.50
2022-09-02T14:14:16.277Z,0.22
2022-09-02T14:16:45.756Z,0.30
2022-09-02T14:19:26.807Z,0.50
2022-09-02T14:21:57.906Z,0.50
2022-09-02T14:24:30.807Z,0.40
2022-09-02T14:27:01.743Z,0.20
2022-09-02T14:29:33.185Z,0.50
2022-09-02T14:32:12.762Z,0.63
2022-09-02T14:34:43.964Z,0.47
2022-09-02T14:37:22.280Z,0.40
2022-09-02T14:40:11.813Z,0.40
2022-09-02T14:42:52.710Z,0.52
2022-09-02T14:45:29.711Z,0.28
2022-09-02T14:48:02.989Z,0.10
2022-09-02T14:50:36.631Z,0.30
2022-09-02T14:53:09.054Z,0.22
2022-09-02T14:55:54.203Z,0.38
2022-09-02T14:58:27.140Z,0.20
2022-09-02T15:00:59.362Z,0.10
2022-09-02T15:03:30.211Z,0.40
2022-09-02T15:05:59.232Z,0.10
2022-09-02T15:08:28.367Z,0.30
2022-09-02T15:11:01.114Z,0.20
2022-09-02T15:13:33.933Z,0.30
2022-09-02T15:16:03.459Z,0.40
2022-09-02T15:18:32.555Z,0.28
2022-09-02T15:21:03.291Z,0.25
2022-09-02T15:23:34.834Z,0.38
2022-09-02T15:26:06.735Z,0.25
2022-09-02T15:28:38.186Z,0.25
2022-09-02T15:31:07.620Z,0.40
2022-09-02T15:33:37.504Z,0.20
2022-09-02T15:36:11.289Z,0.30
2022-09-02T15:38:42.112Z,0.52
2022-09-02T15:41:15.001Z,0.32
2022-09-02T15:43:45.461Z,0.28
2022-09-02T15:46:21.489Z,0.25
2022-09-02T15:48:52.137Z,0.35
2022-09-02T15:51:23.363Z,0.30
2022-09-02T15:53:56.899Z,0.60
2022-09-02T15:56:29.054Z,0.30
2022-09-02T15:58:59.989Z,1.00
2022-09-02T16:01:31.649Z,0.45
2022-09-02T16:04:03.067Z,0.50
2022-09-02T16:06:34.419Z,0.98
2022-09-02T16:09:04.222Z,0.60
2022-09-02T16:11:34.965Z,0.45
2022-09-02T16:14:04.389Z,0.45
2022-09-02T16:16:34.611Z,0.93
2022-09-02T16:19:05.219Z,0.52
2022-09-02T16:21:34.983Z,0.70
2022-09-02T16:24:04.365Z,1.92
2022-09-02T16:26:38.204Z,0.70
2022-09-02T16:29:09.870Z,1.30
2022-09-02T16:31:41.550Z,0.65
2022-09-02T16:34:12.233Z,0.88
2022-09-02T16:36:42.376Z,0.50
2022-09-02T16:39:13.187Z,0.60
2022-09-02T16:41:45.588Z,0.65
2022-09-02T16:46:48.288Z,0.43
2022-09-02T16:49:19.434Z,0.40
2022-09-02T16:51:49.711Z,0.50
2022-09-02T16:54:30.955Z,0.40
2022-09-02T16:57:03.722Z,0.40
2022-09-02T16:59:32.876Z,0.60
2022-09-02T17:02:02.287Z,0.40
2022-09-02T17:04:31.283Z,0.40
2022-09-02T17:07:00.601Z,0.63
2022-09-02T17:09:29.629Z,0.70
2022-09-02T17:11:58.723Z,0.68
2022-09-02T17:14:29.369Z,0.57
2022-09-02T17:16:58.587Z,0.50
2022-09-02T17:19:32.126Z,0.47
2022-09-02T17:22:02.034Z,0.75
2022-09-02T17:24:31.942Z,0.95
2022-09-02T17:27:02.162Z,0.77
2022-09-02T17:29:50.263Z,0.85
2022-09-02T17:32:20.275Z,0.90
2022-09-02T17:34:51.548Z,1.10
2022-09-02T17:37:21.615Z,0.95
2022-09-02T17:39:51.428Z,0.90
2022-09-02T17:42:21.517Z,1.27
2022-09-02T17:44:52.156Z,1.70
2022-09-02T17:47:23.312Z,2.00
2022-09-02T17:49:52.545Z,2.20
2022-09-02T17:52:24.230Z,2.38
2022-09-02T17:54:55.485Z,2.85
2022-09-02T17:57:49.911Z,2.55
2022-09-02T18:00:22.469Z,2.47
2022-09-02T18:03:24.322Z,2.20
2022-09-02T18:06:04.552Z,1.58
2022-09-02T18:08:41.198Z,1.33
2022-09-02T18:11:10.539Z,1.58
2022-09-02T18:13:54.714Z,1.20
2022-09-02T18:16:40.078Z,1.33
2022-09-02T18:19:14.255Z,0.98
2022-09-02T18:21:53.592Z,1.23
2022-09-02T18:24:36.497Z,1.60
2022-09-02T18:27:15.050Z,1.63
2022-09-02T18:29:56.508Z,1.40
2022-09-02T18:32:41.546Z,1.48
2022-09-02T18:35:22.876Z,1.42
2022-09-02T18:38:01.886Z,1.52
2022-09-02T18:40:41.394Z,1.67
2022-09-02T18:43:22.162Z,1.40
2022-09-02T18:45:53.589Z,1.30
2022-09-02T18:48:28.923Z,1.02
2022-09-02T18:51:02.893Z,2.50
2022-09-02T18:53:37.057Z,4.32
2022-09-02T18:56:10.803Z,3.88
2022-09-02T18:58:45.647Z,4.80
2022-09-02T19:01:24.130Z,4.00
2022-09-02T19:03:55.001Z,2.03
2022-09-02T19:06:28.911Z,1.50
2022-09-02T19:09:00.060Z,1.40
2022-09-02T19:11:33.360Z,1.17
2022-09-02T19:14:26.731Z,1.50
2022-09-02T19:16:57.731Z,1.20
2022-09-02T19:19:28.724Z,1.40
2022-09-02T19:22:01.936Z,1.17
2022-09-02T19:24:34.245Z,1.30
2022-09-02T19:27:07.499Z,2.38
2022-09-02T19:29:41.711Z,2.13
2022-09-02T19:32:13.492Z,1.70
2022-09-02T19:34:46.360Z,1.92
2022-09-02T19:37:16.341Z,2.92
2022-09-02T19:39:45.687Z,3.95
2022-09-02T19:42:17.895Z,2.45
2022-09-02T19:44:53.307Z,3.35
2022-09-02T19:50:15.094Z,1.63
2022-09-02T19:52:46.915Z,2.58
2022-09-02T19:55:18.025Z,1.60
2022-09-02T19:57:48.017Z,1.85
2022-09-02T20:00:17.952Z,2.03
2022-09-02T20:02:47.336Z,2.17
2022-09-02T20:05:20.168Z,2.72
2022-09-02T20:07:49.600Z,1.70
2022-09-02T20:13:00.509Z,2.75
2022-09-02T20:15:32.030Z,1.58
2022-09-02T20:18:10.926Z,1.73
2022-09-02T20:20:44.114Z,2.10
2022-09-02T20:23:17.203Z,2.08
2022-09-02T20:26:13.268Z,1.85
2022-09-02T20:28:57.087Z,2.35
2022-09-02T20:31:43.499Z,3.15
2022-09-02T20:34:30.748Z,2.03
2022-09-02T20:37:11.346Z,1.80
2022-09-02T20:39:53.954Z,1.73
2022-09-02T20:42:55.465Z,3.28
2022-09-02T20:45:29.150Z,2.78
2022-09-02T20:48:11.131Z,2.38
2022-09-02T20:50:49.822Z,3.47
2022-09-02T20:53:32.636Z,2.88
2022-09-02T20:56:06.152Z,2.40
2022-09-02T20:58:42.105Z,3.58
2022-09-02T21:01:18.473Z,3.00
2022-09-02T21:03:55.175Z,3.53
2022-09-02T21:06:31.606Z,2.95
2022-09-02T21:09:09.745Z,2.85
2022-09-02T21:11:48.067Z,3.30
2022-09-02T21:14:21.705Z,3.53
2022-09-02T21:16:58.237Z,3.70
2022-09-02T21:19:35.003Z,3.72
2022-09-02T21:22:10.618Z,3.90
2022-09-02T21:24:51.653Z,4.53
2022-09-02T21:27:24.899Z,3.20
2022-09-02T21:30:02.361Z,3.78
2022-09-02T21:32:37.880Z,4.43
2022-09-02T21:35:13.574Z,4.30
2022-09-02T21:37:46.049Z,3.50
2022-09-02T21:40:20.178Z,3.67
2022-09-02T21:43:06.505Z,3.47
2022-09-02T21:45:45.696Z,3.58
2022-09-02T21:50:59.232Z,4.25
2022-09-02T21:53:45.757Z,3.70
2022-09-02T21:56:41.394Z,3.65
2022-09-02T21:59:25.939Z,3.47
2022-09-02T22:02:03.449Z,3.58
2022-09-02T22:04:45.199Z,3.40
2022-09-02T22:07:22.479Z,4.18
2022-09-02T22:09:59.605Z,3.40
2022-09-02T22:12:32.680Z,3.28
2022-09-02T22:15:07.875Z,4.32
2022-09-02T22:17:45.730Z,3.85
2022-09-02T22:20:19.374Z,4.05
2022-09-02T22:22:54.391Z,3.85
2022-09-02T22:25:26.764Z,3.78
2022-09-02T22:28:06.628Z,4.60
2022-09-02T22:30:37.975Z,3.30
2022-09-02T22:33:12.139Z,3.53
2022-09-02T22:35:51.792Z,4.20
2022-09-02T22:38:26.537Z,3.50
2022-09-02T22:40:59.518Z,3.42
2022-09-02T22:43:41.686Z,3.70
2022-09-02T22:46:34.070Z,3.75
2022-09-02T22:49:27.132Z,3.03
2022-09-02T22:52:21.513Z,3.85
2022-09-02T22:54:52.358Z,3.85
2022-09-02T22:57:38.918Z,3.95
2022-09-02T23:00:13.404Z,3.38
2022-09-02T23:02:53.018Z,2.78
2022-09-02T23:08:20.581Z,3.20
2022-09-02T23:10:58.534Z,3.17
2022-09-02T23:13:42.511Z,3.33
2022-09-02T23:16:23.594Z,4.80
2022-09-02T23:19:11.185Z,3.05
2022-09-02T23:21:48.919Z,3.05
2022-09-02T23:24:26.711Z,3.25
2022-09-02T23:27:04.277Z,3.13
2022-09-02T23:29:34.233Z,2.92
2022-09-02T23:32:46.460Z,3.35
2022-09-02T23:35:21.449Z,2.92
2022-09-02T23:38:16.130Z,3.50
2022-09-02T23:40:48.279Z,2.83
2022-09-02T23:43:19.376Z,3.17
2022-09-02T23:45:49.684Z,3.40
2022-09-02T23:48:35.174Z,2.25
2022-09-02T23:51:17.654Z,2.30
2022-09-02T23:54:05.705Z,2.90
2022-09-02T23:56:56.132Z,3.05
2022-09-02T23:59:45.312Z,3.55
